sensor_id;sensor_type;location;lat;lon;timestamp;pressure;altitude;pressure_sealevel;temperature;humidity
38852;BME280;24605;50.092;9.182;2023-12-07T00:01:10;152506.25;;;1.75;100.00
38852;BME280;24605;50.092;9.182;2023-12-07T00:03:36;152556.72;;;1.95;100.00
38852;BME280;24605;50.092;9.182;2023-12-07T00:06:03;152554.13;;;1.94;100.00
38852;BME280;24605;50.092;9.182;2023-12-07T00:08:31;152555.47;;;1.95;100.00
38852;BME280;24605;50.092;9.182;2023-12-07T00:10:57;152532.16;;;1.85;100.00
38852;BME280;24605;50.092;9.182;2023-12-07T00:13:24;152523.09;;;1.82;100.00
38852;BME280;24605;50.092;9.182;2023-12-07T00:15:50;152497.19;;;1.71;100.00
38852;BME280;24605;50.092;9.182;2023-12-07T00:18:17;152508.84;;;1.76;100.00
38852;BME280;24605;50.092;9.182;2023-12-07T00:20:44;152528.28;;;1.84;100.00
38852;BME280;24605;50.092;9.182;2023-12-07T00:23:11;152515.31;;;1.79;100.00
38852;BME280;24605;50.092;9.182;2023-12-07T00:25:39;152546.41;;;1.91;100.00
38852;BME280;24605;50.092;9.182;2023-12-07T00:28:05;152556.72;;;1.95;100.00
38852;BME280;24605;50.092;9.182;2023-12-07T00:30:30;152486.84;;;1.67;100.00
38852;BME280;24605;50.092;9.182;2023-12-07T00:32:57;152467.41;;;1.60;100.00
38852;BME280;24605;50.092;9.182;2023-12-07T00:35:24;152447.97;;;1.52;100.00
38852;BME280;24605;50.092;9.182;2023-12-07T00:37:54;152480.34;;;1.65;100.00
38852;BME280;24605;50.092;9.182;2023-12-07T00:40:21;152436.31;;;1.47;100.00
38852;BME280;24605;50.092;9.182;2023-12-07T00:42:49;152403.97;;;1.34;100.00
38852;BME280;24605;50.092;9.182;2023-12-07T00:45:18;152429.84;;;1.45;100.00
38852;BME280;24605;50.092;9.182;2023-12-07T00:47:45;152446.69;;;1.51;100.00
38852;BME280;24605;50.092;9.182;2023-12-07T00:50:12;152398.81;;;1.32;100.00
38852;BME280;24605;50.092;9.182;2023-12-07T00:52:40;152450.56;;;1.53;100.00
38852;BME280;24605;50.092;9.182;2023-12-07T00:55:06;152464.81;;;1.59;100.00
38852;BME280;24605;50.092;9.182;2023-12-07T00:57:33;152400.09;;;1.33;100.00
38852;BME280;24605;50.092;9.182;2023-12-07T01:00:00;152384.56;;;1.27;100.00
38852;BME280;24605;50.092;9.182;2023-12-07T01:02:27;152449.28;;;1.52;100.00
38852;BME280;24605;50.092;9.182;2023-12-07T01:04:53;152475.19;;;1.63;100.00
38852;BME280;24605;50.092;9.182;2023-12-07T01:07:20;152497.19;;;1.71;100.00
38852;BME280;24605;50.092;9.182;2023-12-07T01:09:46;152484.25;;;1.66;100.00
38852;BME280;24605;50.092;9.182;2023-12-07T01:12:13;152419.53;;;1.40;100.00
38852;BME280;24605;50.092;9.182;2023-12-07T01:14:39;152356.09;;;1.15;100.00
38852;BME280;24605;50.092;9.182;2023-12-07T01:17:07;152357.34;;;1.16;100.00
38852;BME280;24605;50.092;9.182;2023-12-07T01:19:34;152306.91;;;0.96;100.00
38852;BME280;24605;50.092;9.182;2023-12-07T01:22:00;152266.78;;;0.80;100.00
38852;BME280;24605;50.092;9.182;2023-12-07T01:24:26;152229.28;;;0.65;100.00
38852;BME280;24605;50.092;9.182;2023-12-07T01:26:54;152209.88;;;0.57;100.00
38852;BME280;24605;50.092;9.182;2023-12-07T01:29:20;152186.56;;;0.47;100.00
38852;BME280;24605;50.092;9.182;2023-12-07T01:31:47;152174.94;;;0.43;100.00
38852;BME280;24605;50.092;9.182;2023-12-07T01:34:16;152185.31;;;0.47;100.00
38852;BME280;24605;50.092;9.182;2023-12-07T01:36:43;152200.81;;;0.53;100.00
38852;BME280;24605;50.092;9.182;2023-12-07T01:39:09;152215.06;;;0.59;100.00
38852;BME280;24605;50.092;9.182;2023-12-07T01:41:37;152227.97;;;0.64;100.00
38852;BME280;24605;50.092;9.182;2023-12-07T01:44:04;152240.94;;;0.69;100.00
38852;BME280;24605;50.092;9.182;2023-12-07T01:46:31;152230.56;;;0.65;100.00
38852;BME280;24605;50.092;9.182;2023-12-07T01:48:58;152243.53;;;0.70;100.00
38852;BME280;24605;50.092;9.182;2023-12-07T01:51:27;152181.41;;;0.45;100.00
38852;BME280;24605;50.092;9.182;2023-12-07T01:53:54;152129.69;;;0.25;100.00
38852;BME280;24605;50.092;9.182;2023-12-07T01:56:21;152111.59;;;0.18;100.00
38852;BME280;24605;50.092;9.182;2023-12-07T01:58:49;152101.22;;;0.13;100.00
38852;BME280;24605;50.092;9.182;2023-12-07T02:01:16;152102.50;;;0.14;100.00
38852;BME280;24605;50.092;9.182;2023-12-07T02:03:43;152102.50;;;0.14;100.00
38852;BME280;24605;50.092;9.182;2023-12-07T02:06:09;152123.19;;;0.22;100.00
38852;BME280;24605;50.092;9.182;2023-12-07T02:08:37;152127.09;;;0.24;100.00
38852;BME280;24605;50.092;9.182;2023-12-07T02:11:07;152116.72;;;0.20;100.00
38852;BME280;24605;50.092;9.182;2023-12-07T02:13:34;152103.81;;;0.14;100.00
38852;BME280;24605;50.092;9.182;2023-12-07T02:16:05;152136.16;;;0.27;100.00
38852;BME280;24605;50.092;9.182;2023-12-07T02:18:38;152213.72;;;0.58;100.00
38852;BME280;24605;50.092;9.182;2023-12-07T02:21:11;152257.72;;;0.76;100.00
38852;BME280;24605;50.092;9.182;2023-12-07T02:23:41;152247.41;;;0.72;100.00
38852;BME280;24605;50.092;9.182;2023-12-07T02:29:19;152303.03;;;0.94;100.00
38852;BME280;24605;50.092;9.182;2023-12-07T02:31:46;152278.41;;;0.84;100.00
38852;BME280;24605;50.092;9.182;2023-12-07T02:34:12;152321.13;;;1.01;100.00
38852;BME280;24605;50.092;9.182;2023-12-07T02:36:39;152313.34;;;0.98;100.00
38852;BME280;24605;50.092;9.182;2023-12-07T02:39:08;152273.28;;;0.82;100.00
38852;BME280;24605;50.092;9.182;2023-12-07T02:41:37;152288.78;;;0.88;100.00
38852;BME280;24605;50.092;9.182;2023-12-07T02:44:06;152391.03;;;1.29;100.00
38852;BME280;24605;50.092;9.182;2023-12-07T02:46:34;152415.59;;;1.39;100.00
38852;BME280;24605;50.092;9.182;2023-12-07T02:49:00;152356.09;;;1.15;100.00
38852;BME280;24605;50.092;9.182;2023-12-07T02:51:27;152308.22;;;0.96;100.00
38852;BME280;24605;50.092;9.182;2023-12-07T02:53:53;152292.66;;;0.90;100.00
38852;BME280;24605;50.092;9.182;2023-12-07T02:56:20;152344.44;;;1.11;100.00
38852;BME280;24605;50.092;9.182;2023-12-07T02:58:46;152347.03;;;1.12;100.00
38852;BME280;24605;50.092;9.182;2023-12-07T03:01:13;152266.78;;;0.80;100.00
38852;BME280;24605;50.092;9.182;2023-12-07T03:03:41;152239.59;;;0.69;100.00
38852;BME280;24605;50.092;9.182;2023-12-07T03:06:07;152240.94;;;0.69;100.00
38852;BME280;24605;50.092;9.182;2023-12-07T03:08:34;152248.66;;;0.72;100.00
38852;BME280;24605;50.092;9.182;2023-12-07T03:11:00;152247.41;;;0.72;100.00
38852;BME280;24605;50.092;9.182;2023-12-07T03:13:27;152282.34;;;0.86;100.00
38852;BME280;24605;50.092;9.182;2023-12-07T03:15:53;152209.88;;;0.57;100.00
38852;BME280;24605;50.092;9.182;2023-12-07T03:18:20;152277.13;;;0.84;100.00
38852;BME280;24605;50.092;9.182;2023-12-07T03:20:47;152274.56;;;0.83;100.00
38852;BME280;24605;50.092;9.182;2023-12-07T03:23:15;152244.78;;;0.71;100.00
38852;BME280;24605;50.092;9.182;2023-12-07T03:25:42;152231.88;;;0.66;100.00
38852;BME280;24605;50.092;9.182;2023-12-07T03:28:08;152234.44;;;0.67;100.00
38852;BME280;24605;50.092;9.182;2023-12-07T03:30:35;152173.66;;;0.42;100.00
38852;BME280;24605;50.092;9.182;2023-12-07T03:33:01;152127.09;;;0.24;100.00
38852;BME280;24605;50.092;9.182;2023-12-07T03:35:27;152092.19;;;0.10;100.00
38852;BME280;24605;50.092;9.182;2023-12-07T03:37:55;152056.00;;;-0.05;100.00
38852;BME280;24605;50.092;9.182;2023-12-07T03:40:21;152018.47;;;-0.20;100.00
38852;BME280;24605;50.092;9.182;2023-12-07T03:42:48;151977.13;;;-0.36;100.00
38852;BME280;24605;50.092;9.182;2023-12-07T03:45:13;151946.09;;;-0.49;100.00
38852;BME280;24605;50.092;9.182;2023-12-07T03:47:41;151908.59;;;-0.64;100.00
38852;BME280;24605;50.092;9.182;2023-12-07T03:50:08;151907.31;;;-0.64;100.00
38852;BME280;24605;50.092;9.182;2023-12-07T03:52:34;151887.91;;;-0.72;100.00
38852;BME280;24605;50.092;9.182;2023-12-07T03:55:02;151886.66;;;-0.72;100.00
38852;BME280;24605;50.092;9.182;2023-12-07T03:57:30;151836.22;;;-0.92;100.00
38852;BME280;24605;50.092;9.182;2023-12-07T03:59:56;151819.47;;;-0.99;100.00
38852;BME280;24605;50.092;9.182;2023-12-07T04:02:23;151806.50;;;-1.04;100.00
38852;BME280;24605;50.092;9.182;2023-12-07T04:04:49;151814.28;;;-1.01;100.00
38852;BME280;24605;50.092;9.182;2023-12-07T04:07:16;151798.78;;;-1.07;100.00
38852;BME280;24605;50.092;9.182;2023-12-07T04:09:42;151851.75;;;-0.86;100.00
38852;BME280;24605;50.092;9.182;2023-12-07T04:12:10;151896.97;;;-0.68;100.00
38852;BME280;24605;50.092;9.182;2023-12-07T04:14:36;151863.38;;;-0.82;100.00
38852;BME280;24605;50.092;9.182;2023-12-07T04:17:03;151924.13;;;-0.57;100.00
38852;BME280;24605;50.092;9.182;2023-12-07T04:19:29;151962.91;;;-0.42;100.00
38852;BME280;24605;50.092;9.182;2023-12-07T04:21:56;151913.78;;;-0.61;100.00
38852;BME280;24605;50.092;9.182;2023-12-07T04:24:22;151881.47;;;-0.74;100.00
38852;BME280;24605;50.092;9.182;2023-12-07T04:26:49;151823.31;;;-0.98;100.00
38852;BME280;24605;50.092;9.182;2023-12-07T04:29:16;151797.47;;;-1.08;100.00
38852;BME280;24605;50.092;9.182;2023-12-07T04:31:43;151753.56;;;-1.26;100.00
38852;BME280;24605;50.092;9.182;2023-12-07T04:34:09;151750.97;;;-1.27;100.00
38852;BME280;24605;50.092;9.182;2023-12-07T04:36:36;151710.97;;;-1.43;100.00
38852;BME280;24605;50.092;9.182;2023-12-07T04:39:03;151718.69;;;-1.39;100.00
38852;BME280;24605;50.092;9.182;2023-12-07T04:41:29;151761.31;;;-1.22;100.00
38852;BME280;24605;50.092;9.182;2023-12-07T04:43:56;151762.59;;;-1.22;100.00
38852;BME280;24605;50.092;9.182;2023-12-07T04:46:23;151778.13;;;-1.16;100.00
38852;BME280;24605;50.092;9.182;2023-12-07T04:48:50;151796.19;;;-1.08;100.00
38852;BME280;24605;50.092;9.182;2023-12-07T04:51:16;151822.03;;;-0.98;100.00
38852;BME280;24605;50.092;9.182;2023-12-07T04:53:43;151822.03;;;-0.98;100.00
38852;BME280;24605;50.092;9.182;2023-12-07T04:56:09;151793.59;;;-1.09;100.00
38852;BME280;24605;50.092;9.182;2023-12-07T04:58:36;151788.44;;;-1.12;100.00
38852;BME280;24605;50.092;9.182;2023-12-07T05:01:02;151785.84;;;-1.13;100.00
38852;BME280;24605;50.092;9.182;2023-12-07T05:03:31;151780.72;;;-1.15;100.00
38852;BME280;24605;50.092;9.182;2023-12-07T05:05:58;151667.03;;;-1.60;100.00
38852;BME280;24605;50.092;9.182;2023-12-07T05:08:25;151709.63;;;-1.43;100.00
38852;BME280;24605;50.092;9.182;2023-12-07T05:10:51;151685.13;;;-1.53;100.00
38852;BME280;24605;50.092;9.182;2023-12-07T05:13:17;151668.31;;;-1.60;100.00
38852;BME280;24605;50.092;9.182;2023-12-07T05:15:44;151690.28;;;-1.51;100.00
38852;BME280;24605;50.092;9.182;2023-12-07T05:18:12;151646.38;;;-1.68;100.00
38852;BME280;24605;50.092;9.182;2023-12-07T05:20:40;151743.25;;;-1.30;100.00
38852;BME280;24605;50.092;9.182;2023-12-07T05:23:08;151710.97;;;-1.43;100.00
38852;BME280;24605;50.092;9.182;2023-12-07T05:25:35;151667.03;;;-1.60;100.00
38852;BME280;24605;50.092;9.182;2023-12-07T05:28:01;151625.72;;;-1.77;100.00
38852;BME280;24605;50.092;9.182;2023-12-07T05:30:28;151643.81;;;-1.69;100.00
38852;BME280;24605;50.092;9.182;2023-12-07T05:32:57;151614.13;;;-1.81;100.00
38852;BME280;24605;50.092;9.182;2023-12-07T05:35:24;151607.63;;;-1.84;100.00
38852;BME280;24605;50.092;9.182;2023-12-07T05:37:52;151612.78;;;-1.82;100.00
38852;BME280;24605;50.092;9.182;2023-12-07T05:40:18;151633.44;;;-1.74;100.00
38852;BME280;24605;50.092;9.182;2023-12-07T05:42:47;151646.38;;;-1.68;100.00
38852;BME280;24605;50.092;9.182;2023-12-07T05:45:14;151610.19;;;-1.83;100.00
38852;BME280;24605;50.092;9.182;2023-12-07T05:47:40;151638.63;;;-1.71;100.00
38852;BME280;24605;50.092;9.182;2023-12-07T05:50:07;151637.34;;;-1.72;100.00
38852;BME280;24605;50.092;9.182;2023-12-07T05:52:35;151632.19;;;-1.74;100.00
38852;BME280;24605;50.092;9.182;2023-12-07T05:55:03;151667.03;;;-1.60;100.00
38852;BME280;24605;50.092;9.182;2023-12-07T05:57:30;151614.13;;;-1.81;100.00
38852;BME280;24605;50.092;9.182;2023-12-07T05:59:56;151650.25;;;-1.67;100.00
38852;BME280;24605;50.092;9.182;2023-12-07T06:02:23;151658.00;;;-1.64;100.00
38852;BME280;24605;50.092;9.182;2023-12-07T06:04:49;151672.19;;;-1.58;100.00
38852;BME280;24605;50.092;9.182;2023-12-07T06:07:16;151730.28;;;-1.35;100.00
38852;BME280;24605;50.092;9.182;2023-12-07T06:09:42;151754.88;;;-1.25;100.00
38852;BME280;24605;50.092;9.182;2023-12-07T06:12:10;151841.41;;;-0.90;100.00
38852;BME280;24605;50.092;9.182;2023-12-07T06:14:36;151822.03;;;-0.98;100.00
38852;BME280;24605;50.092;9.182;2023-12-07T06:17:03;151881.47;;;-0.74;100.00
38852;BME280;24605;50.092;9.182;2023-12-07T06:19:29;151873.69;;;-0.77;100.00
38852;BME280;24605;50.092;9.182;2023-12-07T06:21:57;151929.25;;;-0.55;100.00
38852;BME280;24605;50.092;9.182;2023-12-07T06:24:23;151939.63;;;-0.51;100.00
38852;BME280;24605;50.092;9.182;2023-12-07T06:26:50;151962.91;;;-0.42;100.00
38852;BME280;24605;50.092;9.182;2023-12-07T06:29:18;151978.41;;;-0.36;100.00
38852;BME280;24605;50.092;9.182;2023-12-07T06:31:45;151982.25;;;-0.34;100.00
38852;BME280;24605;50.092;9.182;2023-12-07T06:34:12;152028.81;;;-0.16;100.00
38852;BME280;24605;50.092;9.182;2023-12-07T06:36:38;152062.44;;;-0.02;100.00
38852;BME280;24605;50.092;9.182;2023-12-07T06:39:05;152065.03;;;-0.01;100.00
38852;BME280;24605;50.092;9.182;2023-12-07T06:41:31;152076.66;;;0.04;100.00
38852;BME280;24605;50.092;9.182;2023-12-07T06:43:58;152101.22;;;0.13;100.00
38852;BME280;24605;50.092;9.182;2023-12-07T06:46:26;152050.81;;;-0.07;100.00
38852;BME280;24605;50.092;9.182;2023-12-07T06:48:52;152136.16;;;0.27;100.00
38852;BME280;24605;50.092;9.182;2023-12-07T06:51:19;152155.56;;;0.35;100.00
38852;BME280;24605;50.092;9.182;2023-12-07T06:53:45;152151.66;;;0.34;100.00
38852;BME280;24605;50.092;9.182;2023-12-07T06:56:12;152150.38;;;0.33;100.00
38852;BME280;24605;50.092;9.182;2023-12-07T06:58:38;152133.56;;;0.26;100.00
38852;BME280;24605;50.092;9.182;2023-12-07T07:01:05;152119.31;;;0.21;100.00
38852;BME280;24605;50.092;9.182;2023-12-07T07:03:32;152155.56;;;0.35;100.00
38852;BME280;24605;50.092;9.182;2023-12-07T07:06:00;152138.75;;;0.28;100.00
38852;BME280;24605;50.092;9.182;2023-12-07T07:08:27;152138.75;;;0.28;100.00
38852;BME280;24605;50.092;9.182;2023-12-07T07:10:54;152169.75;;;0.41;100.00
38852;BME280;24605;50.092;9.182;2023-12-07T07:13:20;152160.69;;;0.37;100.00
38852;BME280;24605;50.092;9.182;2023-12-07T07:15:47;152202.09;;;0.54;100.00
38852;BME280;24605;50.092;9.182;2023-12-07T07:18:14;152211.13;;;0.57;100.00
38852;BME280;24605;50.092;9.182;2023-12-07T07:20:41;152259.03;;;0.76;100.00
38852;BME280;24605;50.092;9.182;2023-12-07T07:23:08;152274.56;;;0.83;100.00
38852;BME280;24605;50.092;9.182;2023-12-07T07:25:35;152209.88;;;0.57;100.00
38852;BME280;24605;50.092;9.182;2023-12-07T07:28:03;152189.16;;;0.49;100.00
38852;BME280;24605;50.092;9.182;2023-12-07T07:30:30;152147.78;;;0.32;100.00
38852;BME280;24605;50.092;9.182;2023-12-07T07:32:57;152134.81;;;0.27;100.00
38852;BME280;24605;50.092;9.182;2023-12-07T07:35:23;152134.81;;;0.27;100.00
38852;BME280;24605;50.092;9.182;2023-12-07T07:37:53;152102.50;;;0.14;100.00
38852;BME280;24605;50.092;9.182;2023-12-07T07:40:20;152053.41;;;-0.06;100.00
38852;BME280;24605;50.092;9.182;2023-12-07T07:42:47;152022.34;;;-0.18;100.00
38852;BME280;24605;50.092;9.182;2023-12-07T07:45:13;152008.13;;;-0.24;100.00
38852;BME280;24605;50.092;9.182;2023-12-07T07:47:39;151975.81;;;-0.37;100.00
38852;BME280;24605;50.092;9.182;2023-12-07T07:50:07;151955.13;;;-0.45;100.00
38852;BME280;24605;50.092;9.182;2023-12-07T07:52:33;151933.19;;;-0.54;100.00
38852;BME280;24605;50.092;9.182;2023-12-07T07:55:03;151920.22;;;-0.59;100.00
38852;BME280;24605;50.092;9.182;2023-12-07T07:57:30;151971.94;;;-0.38;100.00
38852;BME280;24605;50.092;9.182;2023-12-07T07:59:56;152022.34;;;-0.18;100.00
38852;BME280;24605;50.092;9.182;2023-12-07T08:02:23;152076.66;;;0.04;100.00
38852;BME280;24605;50.092;9.182;2023-12-07T08:04:50;152040.44;;;-0.11;100.00
38852;BME280;24605;50.092;9.182;2023-12-07T08:07:17;152053.41;;;-0.06;100.00
38852;BME280;24605;50.092;9.182;2023-12-07T08:09:43;152098.63;;;0.12;100.00
38852;BME280;24605;50.092;9.182;2023-12-07T08:12:11;152019.75;;;-0.19;100.00
38852;BME280;24605;50.092;9.182;2023-12-07T08:14:37;152124.50;;;0.23;100.00
38852;BME280;24605;50.092;9.182;2023-12-07T08:17:05;152130.97;;;0.25;100.00
38852;BME280;24605;50.092;9.182;2023-12-07T08:19:31;152116.72;;;0.20;100.00
38852;BME280;24605;50.092;9.182;2023-12-07T08:21:58;152118.03;;;0.20;100.00
38852;BME280;24605;50.092;9.182;2023-12-07T08:24:24;152094.78;;;0.11;100.00
38852;BME280;24605;50.092;9.182;2023-12-07T08:26:51;152130.97;;;0.25;100.00
38852;BME280;24605;50.092;9.182;2023-12-07T08:29:19;152097.38;;;0.12;100.00
38852;BME280;24605;50.092;9.182;2023-12-07T08:31:45;152044.34;;;-0.09;100.00
38852;BME280;24605;50.092;9.182;2023-12-07T08:34:13;152087.00;;;0.08;100.00
38852;BME280;24605;50.092;9.182;2023-12-07T08:36:39;152097.38;;;0.12;100.00
38852;BME280;24605;50.092;9.182;2023-12-07T08:39:06;152102.50;;;0.14;100.00
38852;BME280;24605;50.092;9.182;2023-12-07T08:41:35;152105.09;;;0.15;100.00
38852;BME280;24605;50.092;9.182;2023-12-07T08:44:01;152068.91;;;0.01;100.00
38852;BME280;24605;50.092;9.182;2023-12-07T08:46:29;152076.66;;;0.04;100.00
38852;BME280;24605;50.092;9.182;2023-12-07T08:48:55;152101.22;;;0.13;100.00
38852;BME280;24605;50.092;9.182;2023-12-07T08:51:22;152103.81;;;0.14;100.00
38852;BME280;24605;50.092;9.182;2023-12-07T08:53:49;152127.09;;;0.24;100.00
38852;BME280;24605;50.092;9.182;2023-12-07T08:56:16;152116.72;;;0.20;100.00
38852;BME280;24605;50.092;9.182;2023-12-07T08:58:43;152145.19;;;0.31;100.00
38852;BME280;24605;50.092;9.182;2023-12-07T09:01:10;152147.78;;;0.32;100.00
38852;BME280;24605;50.092;9.182;2023-12-07T09:03:38;152189.16;;;0.49;100.00
38852;BME280;24605;50.092;9.182;2023-12-07T09:06:07;152178.81;;;0.44;100.00
38852;BME280;24605;50.092;9.182;2023-12-07T09:08:34;152183.97;;;0.46;100.00
38852;BME280;24605;50.092;9.182;2023-12-07T09:11:00;152180.13;;;0.45;100.00
38852;BME280;24605;50.092;9.182;2023-12-07T09:13:26;152185.31;;;0.47;100.00
38852;BME280;24605;50.092;9.182;2023-12-07T09:15:54;152141.31;;;0.29;100.00
38852;BME280;24605;50.092;9.182;2023-12-07T09:18:20;152186.56;;;0.47;100.00
38852;BME280;24605;50.092;9.182;2023-12-07T09:20:48;152173.66;;;0.42;100.00
38852;BME280;24605;50.092;9.182;2023-12-07T09:23:15;152180.13;;;0.45;100.00
38852;BME280;24605;50.092;9.182;2023-12-07T09:25:42;152189.16;;;0.49;100.00
38852;BME280;24605;50.092;9.182;2023-12-07T09:28:08;152233.16;;;0.66;100.00
38852;BME280;24605;50.092;9.182;2023-12-07T09:30:35;152282.34;;;0.86;100.00
38852;BME280;24605;50.092;9.182;2023-12-07T09:33:01;152323.72;;;1.02;100.00
38852;BME280;24605;50.092;9.182;2023-12-07T09:35:28;152388.44;;;1.28;100.00
38852;BME280;24605;50.092;9.182;2023-12-07T09:37:57;152426.00;;;1.43;100.00
38852;BME280;24605;50.092;9.182;2023-12-07T09:40:23;152423.41;;;1.42;100.00
38852;BME280;24605;50.092;9.182;2023-12-07T09:42:51;152462.22;;;1.58;100.00
38852;BME280;24605;50.092;9.182;2023-12-07T09:45:18;152427.25;;;1.44;100.00
38852;BME280;24605;50.092;9.182;2023-12-07T09:47:47;152506.25;;;1.75;100.00
38852;BME280;24605;50.092;9.182;2023-12-07T09:50:15;152490.72;;;1.69;100.00
38852;BME280;24605;50.092;9.182;2023-12-07T09:52:43;152533.41;;;1.86;100.00
38852;BME280;24605;50.092;9.182;2023-12-07T09:55:10;152521.75;;;1.81;100.00
38852;BME280;24605;50.092;9.182;2023-12-07T09:57:37;152436.31;;;1.47;100.00
38852;BME280;24605;50.092;9.182;2023-12-07T10:00:05;152460.94;;;1.57;100.00
38852;BME280;24605;50.092;9.182;2023-12-07T10:02:36;152517.91;;;1.80;100.00
38852;BME280;24605;50.092;9.182;2023-12-07T10:05:03;152520.50;;;1.81;100.00
38852;BME280;24605;50.092;9.182;2023-12-07T10:07:32;152471.28;;;1.61;100.00
38852;BME280;24605;50.092;9.182;2023-12-07T10:10:00;152504.97;;;1.75;100.00
38852;BME280;24605;50.092;9.182;2023-12-07T10:12:29;152543.81;;;1.90;100.00
38852;BME280;24605;50.092;9.182;2023-12-07T10:14:56;152602.09;;;2.13;100.00
38852;BME280;24605;50.092;9.182;2023-12-07T10:17:23;152624.09;;;2.22;100.00
38852;BME280;24605;50.092;9.182;2023-12-07T10:20:07;152593.03;;;2.10;100.00
38852;BME280;24605;50.092;9.182;2023-12-07T10:22:34;152581.38;;;2.05;100.00
38852;BME280;24605;50.092;9.182;2023-12-07T10:25:01;152596.91;;;2.11;100.00
38852;BME280;24605;50.092;9.182;2023-12-07T10:27:30;152651.31;;;2.33;100.00
38852;BME280;24605;50.092;9.182;2023-12-07T10:29:58;152616.34;;;2.19;100.00
38852;BME280;24605;50.092;9.182;2023-12-07T10:32:25;152672.06;;;2.41;100.00
38852;BME280;24605;50.092;9.182;2023-12-07T10:34:52;152719.97;;;2.60;100.00
38852;BME280;24605;50.092;9.182;2023-12-07T10:37:18;152708.31;;;2.56;100.00
38852;BME280;24605;50.092;9.182;2023-12-07T10:39:45;152700.50;;;2.53;100.00
38852;BME280;24605;50.092;9.182;2023-12-07T10:42:12;152747.16;;;2.71;100.00
38852;BME280;24605;50.092;9.182;2023-12-07T10:44:42;152732.91;;;2.65;100.00
38852;BME280;24605;50.092;9.182;2023-12-07T10:47:10;152708.31;;;2.56;100.00
38852;BME280;24605;50.092;9.182;2023-12-07T10:49:40;152583.97;;;2.06;100.00
38852;BME280;24605;50.092;9.182;2023-12-07T10:52:12;152538.59;;;1.88;100.00
38852;BME280;24605;50.092;9.182;2023-12-07T10:54:43;152479.06;;;1.64;100.00
38852;BME280;24605;50.092;9.182;2023-12-07T10:57:13;152484.25;;;1.66;100.00
38852;BME280;24605;50.092;9.182;2023-12-07T10:59:42;152526.97;;;1.83;100.00
38852;BME280;24605;50.092;9.182;2023-12-07T11:02:12;152578.78;;;2.04;100.00
38852;BME280;24605;50.092;9.182;2023-12-07T11:04:39;152590.44;;;2.09;100.00
38852;BME280;24605;50.092;9.182;2023-12-07T11:07:11;152620.22;;;2.21;100.00
38852;BME280;24605;50.092;9.182;2023-12-07T11:09:44;152653.88;;;2.34;100.00
38852;BME280;24605;50.092;9.182;2023-12-07T11:12:17;152672.06;;;2.41;100.00
38852;BME280;24605;50.092;9.182;2023-12-07T11:14:46;152655.19;;;2.34;100.00
38852;BME280;24605;50.092;9.182;2023-12-07T11:17:14;152687.59;;;2.47;100.00
38852;BME280;24605;50.092;9.182;2023-12-07T11:19:46;152648.72;;;2.32;100.00
38852;BME280;24605;50.092;9.182;2023-12-07T11:22:13;152704.44;;;2.54;100.00
38852;BME280;24605;50.092;9.182;2023-12-07T11:24:51;152679.78;;;2.44;100.00
38852;BME280;24605;50.092;9.182;2023-12-07T11:27:18;152710.91;;;2.57;100.00
38852;BME280;24605;50.092;9.182;2023-12-07T11:29:47;152701.84;;;2.53;100.00
38852;BME280;24605;50.092;9.182;2023-12-07T11:32:14;152678.50;;;2.44;100.00
38852;BME280;24605;50.092;9.182;2023-12-07T11:34:41;152634.47;;;2.26;100.00
38852;BME280;24605;50.092;9.182;2023-12-07T11:37:09;152717.38;;;2.59;100.00
38852;BME280;24605;50.092;9.182;2023-12-07T11:39:36;152704.44;;;2.54;100.00
38852;BME280;24605;50.092;9.182;2023-12-07T11:42:06;152744.56;;;2.70;100.00
38852;BME280;24605;50.092;9.182;2023-12-07T11:44:34;152762.75;;;2.77;100.00
38852;BME280;24605;50.092;9.182;2023-12-07T11:47:02;152760.16;;;2.76;100.00
38852;BME280;24605;50.092;9.182;2023-12-07T11:49:30;152727.75;;;2.63;100.00
38852;BME280;24605;50.092;9.182;2023-12-07T11:51:57;152747.16;;;2.71;100.00
38852;BME280;24605;50.092;9.182;2023-12-07T11:54:23;152769.22;;;2.80;100.00
38852;BME280;24605;50.092;9.182;2023-12-07T11:56:52;152756.25;;;2.75;100.00
38852;BME280;24605;50.092;9.182;2023-12-07T11:59:18;152800.31;;;2.92;100.00
38852;BME280;24605;50.092;9.182;2023-12-07T12:01:46;152801.63;;;2.93;100.00
38852;BME280;24605;50.092;9.182;2023-12-07T12:04:15;152806.81;;;2.95;100.00
38852;BME280;24605;50.092;9.182;2023-12-07T12:06:43;152835.28;;;3.06;100.00
38852;BME280;24605;50.092;9.182;2023-12-07T12:09:09;152797.69;;;2.91;100.00
38852;BME280;24605;50.092;9.182;2023-12-07T12:11:38;152850.88;;;3.12;100.00
38852;BME280;24605;50.092;9.182;2023-12-07T12:14:10;152846.97;;;3.11;100.00
38852;BME280;24605;50.092;9.182;2023-12-07T12:16:37;152818.47;;;3.00;100.00
38852;BME280;24605;50.092;9.182;2023-12-07T12:19:03;152831.41;;;3.05;100.00
38852;BME280;24605;50.092;9.182;2023-12-07T12:21:34;152848.28;;;3.11;100.00
38852;BME280;24605;50.092;9.182;2023-12-07T12:24:01;152870.31;;;3.20;100.00
38852;BME280;24605;50.092;9.182;2023-12-07T12:26:27;152914.38;;;3.38;100.00
38852;BME280;24605;50.092;9.182;2023-12-07T12:28:54;152924.78;;;3.42;100.00
38852;BME280;24605;50.092;9.182;2023-12-07T12:31:21;152909.19;;;3.36;100.00
38852;BME280;24605;50.092;9.182;2023-12-07T12:33:48;152940.31;;;3.48;100.00
38852;BME280;24605;50.092;9.182;2023-12-07T12:36:15;152910.50;;;3.36;100.00
38852;BME280;24605;50.092;9.182;2023-12-07T12:38:46;152941.59;;;3.49;100.00
38852;BME280;24605;50.092;9.182;2023-12-07T12:41:18;152924.78;;;3.42;100.00
38852;BME280;24605;50.092;9.182;2023-12-07T12:43:44;152911.78;;;3.37;100.00
38852;BME280;24605;50.092;9.182;2023-12-07T12:46:11;152940.31;;;3.48;100.00
38852;BME280;24605;50.092;9.182;2023-12-07T12:48:37;152893.63;;;3.29;100.00
38852;BME280;24605;50.092;9.182;2023-12-07T12:51:07;152927.38;;;3.43;100.00